sensor_id;sensor_type;location;lat;lon;timestamp;pressure;altitude;pressure_sealevel;temperature;humidity
77092;BME280;66032;48.252;11.638;2023-03-16T00:00:20;96388.06;;;1.24;88.38
77092;BME280;66032;48.252;11.638;2023-03-16T00:02:48;96397.06;;;1.18;88.25
77092;BME280;66032;48.252;11.638;2023-03-16T00:05:15;96392.91;;;1.16;88.26
77092;BME280;66032;48.252;11.638;2023-03-16T00:07:43;96390.63;;;1.09;88.13
77092;BME280;66032;48.252;11.638;2023-03-16T00:10:12;96384.91;;;1.03;88.26
77092;BME280;66032;48.252;11.638;2023-03-16T00:12:39;96381.56;;;1.01;88.84
77092;BME280;66032;48.252;11.638;2023-03-16T00:15:12;96372.47;;;0.92;89.01
77092;BME280;66032;48.252;11.638;2023-03-16T00:17:39;96384.13;;;0.87;88.92
77092;BME280;66032;48.252;11.638;2023-03-16T00:20:08;96386.09;;;0.83;89.60
77092;BME280;66032;48.252;11.638;2023-03-16T00:22:36;96384.72;;;0.76;89.78
77092;BME280;66032;48.252;11.638;2023-03-16T00:25:03;96387.69;;;0.70;90.00
77092;BME280;66032;48.252;11.638;2023-03-16T00:27:31;96381.84;;;0.66;90.89
77092;BME280;66032;48.252;11.638;2023-03-16T00:29:59;96397.72;;;0.62;91.09
77092;BME280;66032;48.252;11.638;2023-03-16T00:32:32;96392.84;;;0.56;91.29
77092;BME280;66032;48.252;11.638;2023-03-16T00:35:02;96382.78;;;0.50;91.67
77092;BME280;66032;48.252;11.638;2023-03-16T00:37:31;96383.88;;;0.46;91.63
77092;BME280;66032;48.252;11.638;2023-03-16T00:40:03;96387.59;;;0.42;91.48
77092;BME280;66032;48.252;11.638;2023-03-16T00:42:34;96376.56;;;0.36;91.61
77092;BME280;66032;48.252;11.638;2023-03-16T00:45:01;96388.81;;;0.34;92.26
77092;BME280;66032;48.252;11.638;2023-03-16T00:47:33;96389.00;;;0.31;92.50
77092;BME280;66032;48.252;11.638;2023-03-16T00:50:01;96397.84;;;0.29;92.58
77092;BME280;66032;48.252;11.638;2023-03-16T00:52:29;96404.88;;;0.27;92.79
77092;BME280;66032;48.252;11.638;2023-03-16T00:54:57;96392.03;;;0.24;92.66
77092;BME280;66032;48.252;11.638;2023-03-16T00:57:26;96389.59;;;0.21;93.06
77092;BME280;66032;48.252;11.638;2023-03-16T00:59:55;96394.03;;;0.19;93.29
77092;BME280;66032;48.252;11.638;2023-03-16T01:02:22;96395.16;;;0.15;93.22
77092;BME280;66032;48.252;11.638;2023-03-16T01:04:52;96393.53;;;0.12;93.11
77092;BME280;66032;48.252;11.638;2023-03-16T01:07:21;96396.41;;;0.08;93.30
77092;BME280;66032;48.252;11.638;2023-03-16T01:09:49;96390.59;;;0.03;92.99
77092;BME280;66032;48.252;11.638;2023-03-16T01:12:18;96392.44;;;0.00;93.71
77092;BME280;66032;48.252;11.638;2023-03-16T01:14:46;96390.84;;;-0.02;93.85
77092;BME280;66032;48.252;11.638;2023-03-16T01:17:16;96395.22;;;-0.03;94.31
77092;BME280;66032;48.252;11.638;2023-03-16T01:19:44;96391.84;;;-0.05;94.50
77092;BME280;66032;48.252;11.638;2023-03-16T01:22:13;96380.66;;;-0.07;94.63
77092;BME280;66032;48.252;11.638;2023-03-16T01:24:41;96383.34;;;-0.08;94.70
77092;BME280;66032;48.252;11.638;2023-03-16T01:27:12;96387.75;;;-0.09;94.80
77092;BME280;66032;48.252;11.638;2023-03-16T01:29:40;96385.94;;;-0.08;94.70
77092;BME280;66032;48.252;11.638;2023-03-16T01:32:10;96383.34;;;-0.08;94.74
77092;BME280;66032;48.252;11.638;2023-03-16T01:34:38;96388.66;;;-0.10;94.92
77092;BME280;66032;48.252;11.638;2023-03-16T01:37:06;96390.56;;;-0.13;94.70
77092;BME280;66032;48.252;11.638;2023-03-16T01:39:57;96384.59;;;-0.15;94.79
77092;BME280;66032;48.252;11.638;2023-03-16T01:42:24;96387.38;;;-0.18;94.95
77092;BME280;66032;48.252;11.638;2023-03-16T01:45:01;96378.81;;;-0.20;94.98
77092;BME280;66032;48.252;11.638;2023-03-16T01:47:35;96372.81;;;-0.22;95.01
77092;BME280;66032;48.252;11.638;2023-03-16T01:50:09;96377.19;;;-0.23;95.27
77092;BME280;66032;48.252;11.638;2023-03-16T01:52:38;96372.06;;;-0.24;95.16
77092;BME280;66032;48.252;11.638;2023-03-16T01:55:07;96371.41;;;-0.28;95.11
77092;BME280;66032;48.252;11.638;2023-03-16T01:57:42;96373.25;;;-0.30;95.20
77092;BME280;66032;48.252;11.638;2023-03-16T02:00:17;96364.66;;;-0.32;95.32
77092;BME280;66032;48.252;11.638;2023-03-16T02:03:06;96360.47;;;-0.34;95.42
77092;BME280;66032;48.252;11.638;2023-03-16T02:05:50;96371.63;;;-0.32;95.46
77092;BME280;66032;48.252;11.638;2023-03-16T02:08:23;96369.72;;;-0.29;95.47
77092;BME280;66032;48.252;11.638;2023-03-16T02:10:51;96372.91;;;-0.24;95.72
77092;BME280;66032;48.252;11.638;2023-03-16T02:13:23;96374.44;;;-0.20;95.87
77092;BME280;66032;48.252;11.638;2023-03-16T02:15:51;96368.13;;;-0.16;95.92
77092;BME280;66032;48.252;11.638;2023-03-16T02:18:20;96370.56;;;-0.13;95.83
77092;BME280;66032;48.252;11.638;2023-03-16T02:23:45;96373.47;;;-0.02;96.05
77092;BME280;66032;48.252;11.638;2023-03-16T02:29:13;96370.78;;;0.16;95.48
77092;BME280;66032;48.252;11.638;2023-03-16T02:31:46;96372.19;;;0.21;95.21
77092;BME280;66032;48.252;11.638;2023-03-16T02:34:16;96372.75;;;0.26;95.06
77092;BME280;66032;48.252;11.638;2023-03-16T02:36:45;96367.41;;;0.29;94.85
77092;BME280;66032;48.252;11.638;2023-03-16T02:39:17;96377.56;;;0.34;94.82
77092;BME280;66032;48.252;11.638;2023-03-16T02:41:45;96373.94;;;0.36;94.85
77092;BME280;66032;48.252;11.638;2023-03-16T02:44:26;96371.09;;;0.41;94.86
77092;BME280;66032;48.252;11.638;2023-03-16T02:46:57;96365.78;;;0.43;94.25
77092;BME280;66032;48.252;11.638;2023-03-16T02:49:35;96363.00;;;0.46;94.41
77092;BME280;66032;48.252;11.638;2023-03-16T02:52:04;96364.59;;;0.48;94.12
77092;BME280;66032;48.252;11.638;2023-03-16T02:54:32;96361.25;;;0.46;94.05
77092;BME280;66032;48.252;11.638;2023-03-16T02:57:00;96363.16;;;0.43;93.29
77092;BME280;66032;48.252;11.638;2023-03-16T02:59:30;96362.66;;;0.36;92.49
77092;BME280;66032;48.252;11.638;2023-03-16T03:01:57;96366.56;;;0.29;92.62
77092;BME280;66032;48.252;11.638;2023-03-16T03:04:25;96350.41;;;0.22;92.48
77092;BME280;66032;48.252;11.638;2023-03-16T03:06:52;96356.91;;;0.15;92.11
77092;BME280;66032;48.252;11.638;2023-03-16T03:09:19;96358.06;;;0.10;92.33
77092;BME280;66032;48.252;11.638;2023-03-16T03:11:51;96354.94;;;0.03;92.55
77092;BME280;66032;48.252;11.638;2023-03-16T03:14:20;96359.66;;;-0.04;92.64
77092;BME280;66032;48.252;11.638;2023-03-16T03:16:49;96357.47;;;-0.11;92.59
77092;BME280;66032;48.252;11.638;2023-03-16T03:19:18;96368.97;;;-0.15;92.52
77092;BME280;66032;48.252;11.638;2023-03-16T03:21:46;96365.63;;;-0.17;92.99
77092;BME280;66032;48.252;11.638;2023-03-16T03:24:13;96358.88;;;-0.21;92.95
77092;BME280;66032;48.252;11.638;2023-03-16T03:26:41;96361.81;;;-0.27;93.04
77092;BME280;66032;48.252;11.638;2023-03-16T03:29:17;96357.63;;;-0.30;93.00
77092;BME280;66032;48.252;11.638;2023-03-16T03:31:45;96362.13;;;-0.33;93.07
77092;BME280;66032;48.252;11.638;2023-03-16T03:34:13;96363.22;;;-0.38;93.10
77092;BME280;66032;48.252;11.638;2023-03-16T03:36:41;96365.16;;;-0.41;93.16
77092;BME280;66032;48.252;11.638;2023-03-16T03:39:08;96359.28;;;-0.45;92.83
77092;BME280;66032;48.252;11.638;2023-03-16T03:41:36;96355.06;;;-0.47;93.30
77092;BME280;66032;48.252;11.638;2023-03-16T03:44:05;96356.91;;;-0.49;93.30
77092;BME280;66032;48.252;11.638;2023-03-16T03:46:34;96354.41;;;-0.51;93.57
77092;BME280;66032;48.252;11.638;2023-03-16T03:49:02;96353.72;;;-0.54;93.33
77092;BME280;66032;48.252;11.638;2023-03-16T03:51:34;96354.78;;;-0.58;93.58
77092;BME280;66032;48.252;11.638;2023-03-16T03:54:07;96346.31;;;-0.62;93.90
77092;BME280;66032;48.252;11.638;2023-03-16T03:56:46;96349.81;;;-0.63;94.00
77092;BME280;66032;48.252;11.638;2023-03-16T03:59:15;96345.59;;;-0.65;93.91
77092;BME280;66032;48.252;11.638;2023-03-16T04:02:09;96341.16;;;-0.63;94.19
77092;BME280;66032;48.252;11.638;2023-03-16T04:04:43;96347.22;;;-0.63;93.98
77092;BME280;66032;48.252;11.638;2023-03-16T04:07:12;96348.13;;;-0.64;94.22
77092;BME280;66032;48.252;11.638;2023-03-16T04:09:41;96340.47;;;-0.67;94.08
77092;BME280;66032;48.252;11.638;2023-03-16T04:12:17;96342.34;;;-0.69;94.51
77092;BME280;66032;48.252;11.638;2023-03-16T04:14:45;96348.47;;;-0.70;94.60
77092;BME280;66032;48.252;11.638;2023-03-16T04:17:13;96349.22;;;-0.68;94.56
77092;BME280;66032;48.252;11.638;2023-03-16T04:19:42;96356.94;;;-0.66;94.62
77092;BME280;66032;48.252;11.638;2023-03-16T04:22:13;96355.03;;;-0.63;94.76
77092;BME280;66032;48.252;11.638;2023-03-16T04:24:41;96350.72;;;-0.64;95.01
77092;BME280;66032;48.252;11.638;2023-03-16T04:27:11;96357.69;;;-0.64;95.10
77092;BME280;66032;48.252;11.638;2023-03-16T04:29:39;96360.31;;;-0.64;95.25
77092;BME280;66032;48.252;11.638;2023-03-16T04:32:07;96365.59;;;-0.66;95.47
77092;BME280;66032;48.252;11.638;2023-03-16T04:34:36;96364.00;;;-0.68;95.71
77092;BME280;66032;48.252;11.638;2023-03-16T04:37:05;96371.81;;;-0.68;95.87
77092;BME280;66032;48.252;11.638;2023-03-16T04:39:35;96363.91;;;-0.67;95.63
77092;BME280;66032;48.252;11.638;2023-03-16T04:42:05;96354.34;;;-0.66;95.55
77092;BME280;66032;48.252;11.638;2023-03-16T04:44:32;96353.66;;;-0.70;95.56
77092;BME280;66032;48.252;11.638;2023-03-16T04:47:00;96350.16;;;-0.69;95.51
77092;BME280;66032;48.252;11.638;2023-03-16T04:49:35;96351.97;;;-0.71;95.38
77092;BME280;66032;48.252;11.638;2023-03-16T04:52:02;96359.78;;;-0.71;95.48
77092;BME280;66032;48.252;11.638;2023-03-16T04:54:31;96351.13;;;-0.71;95.38
77092;BME280;66032;48.252;11.638;2023-03-16T04:57:00;96354.66;;;-0.72;95.12
77092;BME280;66032;48.252;11.638;2023-03-16T04:59:37;96354.59;;;-0.71;95.35
77092;BME280;66032;48.252;11.638;2023-03-16T05:02:14;96347.09;;;-0.77;95.17
77092;BME280;66032;48.252;11.638;2023-03-16T05:04:43;96343.47;;;-0.74;94.90
77092;BME280;66032;48.252;11.638;2023-03-16T05:07:11;96335.84;;;-0.78;94.76
77092;BME280;66032;48.252;11.638;2023-03-16T05:09:42;96328.97;;;-0.79;94.56
77092;BME280;66032;48.252;11.638;2023-03-16T05:12:10;96335.66;;;-0.74;94.47
77092;BME280;66032;48.252;11.638;2023-03-16T05:14:38;96336.69;;;-0.77;94.34
77092;BME280;66032;48.252;11.638;2023-03-16T05:17:26;96336.84;;;-0.80;94.50
77092;BME280;66032;48.252;11.638;2023-03-16T05:19:54;96333.31;;;-0.79;94.39
77092;BME280;66032;48.252;11.638;2023-03-16T05:22:21;96335.91;;;-0.79;94.69
77092;BME280;66032;48.252;11.638;2023-03-16T05:25:06;96328.81;;;-0.75;94.51
77092;BME280;66032;48.252;11.638;2023-03-16T05:27:34;96327.03;;;-0.75;94.43
77092;BME280;66032;48.252;11.638;2023-03-16T05:30:04;96325.25;;;-0.74;94.39
77092;BME280;66032;48.252;11.638;2023-03-16T05:32:33;96326.88;;;-0.72;94.44
77092;BME280;66032;48.252;11.638;2023-03-16T05:35:01;96322.88;;;-0.62;94.31
77092;BME280;66032;48.252;11.638;2023-03-16T05:37:30;96328.69;;;-0.41;93.62
77092;BME280;66032;48.252;11.638;2023-03-16T05:39:58;96322.41;;;-0.21;93.57
77092;BME280;66032;48.252;11.638;2023-03-16T05:42:25;96318.66;;;0.00;92.47
77092;BME280;66032;48.252;11.638;2023-03-16T05:44:59;96312.66;;;0.29;91.38
77092;BME280;66032;48.252;11.638;2023-03-16T05:47:41;96313.03;;;0.53;90.01
77092;BME280;66032;48.252;11.638;2023-03-16T05:50:11;96319.66;;;0.89;89.57
77092;BME280;66032;48.252;11.638;2023-03-16T05:52:42;96319.88;;;1.28;87.82
77092;BME280;66032;48.252;11.638;2023-03-16T05:55:17;96321.50;;;1.73;86.57
77092;BME280;66032;48.252;11.638;2023-03-16T05:57:50;96316.38;;;2.13;85.54
77092;BME280;66032;48.252;11.638;2023-03-16T06:00:18;96310.41;;;2.64;84.78
77092;BME280;66032;48.252;11.638;2023-03-16T06:02:54;96313.22;;;3.01;80.76
77092;BME280;66032;48.252;11.638;2023-03-16T06:05:26;96318.25;;;3.55;79.30
77092;BME280;66032;48.252;11.638;2023-03-16T06:07:55;96309.41;;;4.30;78.72
77092;BME280;66032;48.252;11.638;2023-03-16T06:10:24;96312.44;;;4.95;77.51
77092;BME280;66032;48.252;11.638;2023-03-16T06:12:53;96317.34;;;5.35;72.56
77092;BME280;66032;48.252;11.638;2023-03-16T06:15:21;96307.34;;;6.07;71.93
77092;BME280;66032;48.252;11.638;2023-03-16T06:17:54;96306.22;;;6.43;70.13
77092;BME280;66032;48.252;11.638;2023-03-16T06:20:21;96302.84;;;6.84;67.30
77092;BME280;66032;48.252;11.638;2023-03-16T06:22:49;96309.09;;;7.45;65.38
77092;BME280;66032;48.252;11.638;2023-03-16T06:25:16;96309.19;;;8.16;67.26
77092;BME280;66032;48.252;11.638;2023-03-16T06:27:45;96315.16;;;8.48;62.29
77092;BME280;66032;48.252;11.638;2023-03-16T06:30:16;96315.47;;;9.22;58.84
77092;BME280;66032;48.252;11.638;2023-03-16T06:32:44;96315.88;;;9.46;60.33
77092;BME280;66032;48.252;11.638;2023-03-16T06:35:13;96313.03;;;10.23;59.42
77092;BME280;66032;48.252;11.638;2023-03-16T06:37:47;96310.44;;;10.41;55.28
77092;BME280;66032;48.252;11.638;2023-03-16T06:40:33;96313.91;;;10.69;54.81
77092;BME280;66032;48.252;11.638;2023-03-16T06:43:00;96314.81;;;11.31;53.46
77092;BME280;66032;48.252;11.638;2023-03-16T06:45:28;96307.13;;;11.63;50.78
77092;BME280;66032;48.252;11.638;2023-03-16T06:47:56;96308.72;;;12.34;49.33
77092;BME280;66032;48.252;11.638;2023-03-16T06:50:23;96316.81;;;11.72;49.88
77092;BME280;66032;48.252;11.638;2023-03-16T06:52:51;96308.66;;;12.51;49.94
77092;BME280;66032;48.252;11.638;2023-03-16T06:55:18;96311.53;;;12.74;47.33
77092;BME280;66032;48.252;11.638;2023-03-16T06:57:47;96308.84;;;13.65;45.96
77092;BME280;66032;48.252;11.638;2023-03-16T07:00:17;96311.09;;;14.09;44.26
77092;BME280;66032;48.252;11.638;2023-03-16T07:02:45;96308.81;;;13.16;44.85
77092;BME280;66032;48.252;11.638;2023-03-16T07:05:13;96297.66;;;12.46;47.06
77092;BME280;66032;48.252;11.638;2023-03-16T07:07:42;96307.94;;;11.82;47.57
77092;BME280;66032;48.252;11.638;2023-03-16T07:10:15;96304.28;;;11.83;48.02
77092;BME280;66032;48.252;11.638;2023-03-16T07:12:43;96300.34;;;12.54;47.08
77092;BME280;66032;48.252;11.638;2023-03-16T07:15:11;96301.97;;;11.80;46.43
77092;BME280;66032;48.252;11.638;2023-03-16T07:17:39;96308.47;;;12.11;47.34
77092;BME280;66032;48.252;11.638;2023-03-16T07:20:09;96309.78;;;12.49;45.72
77092;BME280;66032;48.252;11.638;2023-03-16T07:22:38;96307.97;;;12.15;47.27
77092;BME280;66032;48.252;11.638;2023-03-16T07:25:09;96307.97;;;12.15;47.34
77092;BME280;66032;48.252;11.638;2023-03-16T07:27:42;96306.66;;;11.68;47.55
77092;BME280;66032;48.252;11.638;2023-03-16T07:30:14;96310.28;;;11.41;47.02
77092;BME280;66032;48.252;11.638;2023-03-16T07:32:44;96306.84;;;11.92;46.71
77092;BME280;66032;48.252;11.638;2023-03-16T07:35:13;96303.53;;;11.72;46.91
77092;BME280;66032;48.252;11.638;2023-03-16T07:37:40;96314.63;;;11.68;46.49
77092;BME280;66032;48.252;11.638;2023-03-16T07:40:08;96317.19;;;11.16;47.95
77092;BME280;66032;48.252;11.638;2023-03-16T07:42:36;96311.47;;;12.16;45.85
77092;BME280;66032;48.252;11.638;2023-03-16T07:45:09;96315.00;;;11.73;47.00
77092;BME280;66032;48.252;11.638;2023-03-16T07:47:38;96319.84;;;11.34;47.89
77092;BME280;66032;48.252;11.638;2023-03-16T07:50:18;96317.22;;;11.60;47.98
77092;BME280;66032;48.252;11.638;2023-03-16T07:52:48;96321.28;;;11.28;47.95
77092;BME280;66032;48.252;11.638;2023-03-16T07:55:15;96333.22;;;12.11;46.97
77092;BME280;66032;48.252;11.638;2023-03-16T07:57:44;96333.53;;;12.08;46.38
77092;BME280;66032;48.252;11.638;2023-03-16T08:00:19;96334.31;;;12.01;46.38
77092;BME280;66032;48.252;11.638;2023-03-16T08:02:50;96349.66;;;11.28;47.76
77092;BME280;66032;48.252;11.638;2023-03-16T08:05:18;96346.50;;;10.79;49.00
77092;BME280;66032;48.252;11.638;2023-03-16T08:07:50;96349.44;;;10.21;50.00
77092;BME280;66032;48.252;11.638;2023-03-16T08:10:22;96359.34;;;9.15;52.82
77092;BME280;66032;48.252;11.638;2023-03-16T08:13:04;96357.97;;;7.08;58.64
77092;BME280;66032;48.252;11.638;2023-03-16T08:15:34;96370.88;;;6.25;61.88
77092;BME280;66032;48.252;11.638;2023-03-16T08:18:17;96381.88;;;6.07;62.47
77092;BME280;66032;48.252;11.638;2023-03-16T08:20:45;96385.50;;;5.60;63.71
77092;BME280;66032;48.252;11.638;2023-03-16T08:23:12;96387.38;;;4.88;67.02
77092;BME280;66032;48.252;11.638;2023-03-16T08:25:41;96386.03;;;4.23;69.51
77092;BME280;66032;48.252;11.638;2023-03-16T08:28:13;96388.28;;;3.91;71.00
77092;BME280;66032;48.252;11.638;2023-03-16T08:30:50;96387.66;;;3.87;71.37
77092;BME280;66032;48.252;11.638;2023-03-16T08:33:53;96381.38;;;3.64;72.51
77092;BME280;66032;48.252;11.638;2023-03-16T08:36:26;96372.00;;;3.86;72.72
77092;BME280;66032;48.252;11.638;2023-03-16T08:38:56;96384.09;;;3.63;72.93
77092;BME280;66032;48.252;11.638;2023-03-16T08:41:42;96385.66;;;3.78;72.79
77092;BME280;66032;48.252;11.638;2023-03-16T08:44:19;96380.88;;;4.21;71.50
77092;BME280;66032;48.252;11.638;2023-03-16T08:46:49;96378.78;;;4.63;70.75
77092;BME280;66032;48.252;11.638;2023-03-16T08:49:19;96371.72;;;4.87;69.55
77092;BME280;66032;48.252;11.638;2023-03-16T08:51:54;96379.66;;;5.22;68.58
77092;BME280;66032;48.252;11.638;2023-03-16T08:54:21;96377.63;;;5.60;66.93
77092;BME280;66032;48.252;11.638;2023-03-16T08:56:49;96371.16;;;5.18;66.98
77092;BME280;66032;48.252;11.638;2023-03-16T08:59:17;96363.34;;;5.41;67.92
77092;BME280;66032;48.252;11.638;2023-03-16T09:01:55;96363.53;;;5.84;66.20
77092;BME280;66032;48.252;11.638;2023-03-16T09:04:22;96355.22;;;6.01;66.76
77092;BME280;66032;48.252;11.638;2023-03-16T09:06:50;96361.00;;;5.71;66.55
77092;BME280;66032;48.252;11.638;2023-03-16T09:09:33;96352.91;;;6.30;65.96
77092;BME280;66032;48.252;11.638;2023-03-16T09:12:01;96352.41;;;6.90;64.18
77092;BME280;66032;48.252;11.638;2023-03-16T09:14:30;96343.16;;;6.96;63.60
77092;BME280;66032;48.252;11.638;2023-03-16T09:16:57;96354.72;;;7.15;62.22
77092;BME280;66032;48.252;11.638;2023-03-16T09:19:25;96353.41;;;6.78;63.97
77092;BME280;66032;48.252;11.638;2023-03-16T09:21:56;96353.06;;;7.03;63.48
77092;BME280;66032;48.252;11.638;2023-03-16T09:24:24;96350.22;;;6.95;63.44
77092;BME280;66032;48.252;11.638;2023-03-16T09:26:51;96370.56;;;7.57;61.89
77092;BME280;66032;48.252;11.638;2023-03-16T09:29:19;96361.34;;;8.63;58.64
77092;BME280;66032;48.252;11.638;2023-03-16T09:31:47;96354.38;;;10.44;53.73
77092;BME280;66032;48.252;11.638;2023-03-16T09:34:14;96356.69;;;12.24;49.69
77092;BME280;66032;48.252;11.638;2023-03-16T09:36:42;96353.78;;;13.19;47.16
77092;BME280;66032;48.252;11.638;2023-03-16T09:39:09;96350.28;;;14.00;45.46
77092;BME280;66032;48.252;11.638;2023-03-16T09:41:49;96339.56;;;14.88;43.02
77092;BME280;66032;48.252;11.638;2023-03-16T09:46:56;96346.94;;;15.85;40.87
77092;BME280;66032;48.252;11.638;2023-03-16T09:49:28;96327.63;;;15.52;42.63
77092;BME280;66032;48.252;11.638;2023-03-16T09:57:36;96327.00;;;16.40;40.87
77092;BME280;66032;48.252;11.638;2023-03-16T10:00:21;96328.31;;;15.91;40.74
77092;BME280;66032;48.252;11.638;2023-03-16T10:03:01;96321.16;;;16.51;38.77
77092;BME280;66032;48.252;11.638;2023-03-16T10:05:34;96325.66;;;17.09;38.07
77092;BME280;66032;48.252;11.638;2023-03-16T10:10:42;96332.50;;;13.76;43.49
77092;BME280;66032;48.252;11.638;2023-03-16T10:16:24;96322.78;;;13.99;43.20
77092;BME280;66032;48.252;11.638;2023-03-16T10:19:02;96326.75;;;13.06;44.79
77092;BME280;66032;48.252;11.638;2023-03-16T10:21:38;96334.44;;;12.25;48.08
77092;BME280;66032;48.252;11.638;2023-03-16T10:24:33;96336.31;;;12.07;47.64
77092;BME280;66032;48.252;11.638;2023-03-16T10:27:05;96332.19;;;11.61;48.61
77092;BME280;66032;48.252;11.638;2023-03-16T10:29:38;96325.50;;;12.00;48.49
77092;BME280;66032;48.252;11.638;2023-03-16T10:32:14;96324.22;;;10.90;50.70
77092;BME280;66032;48.252;11.638;2023-03-16T10:34:46;96326.75;;;9.53;52.44
77092;BME280;66032;48.252;11.638;2023-03-16T10:37:14;96330.00;;;8.40;56.28
77092;BME280;66032;48.252;11.638;2023-03-16T10:39:41;96327.25;;;8.20;58.15
77092;BME280;66032;48.252;11.638;2023-03-16T10:42:18;96316.25;;;8.36;58.55
77092;BME280;66032;48.252;11.638;2023-03-16T10:44:46;96320.44;;;8.48;57.65
77092;BME280;66032;48.252;11.638;2023-03-16T10:47:22;96321.59;;;8.25;58.43
77092;BME280;66032;48.252;11.638;2023-03-16T10:49:50;96317.09;;;8.16;58.95
77092;BME280;66032;48.252;11.638;2023-03-16T10:52:22;96312.00;;;7.63;60.94
77092;BME280;66032;48.252;11.638;2023-03-16T10:54:57;96316.50;;;7.72;60.97
77092;BME280;66032;48.252;11.638;2023-03-16T10:57:39;96316.34;;;7.43;62.48
77092;BME280;66032;48.252;11.638;2023-03-16T11:00:47;96310.34;;;7.00;63.35
77092;BME280;66032;48.252;11.638;2023-03-16T11:03:30;96304.44;;;6.32;63.57
77092;BME280;66032;48.252;11.638;2023-03-16T11:06:00;96301.59;;;6.24;65.99
77092;BME280;66032;48.252;11.638;2023-03-16T11:08:33;96288.94;;;6.18;67.19
77092;BME280;66032;48.252;11.638;2023-03-16T11:14:11;96303.03;;;5.84;68.65
77092;BME280;66032;48.252;11.638;2023-03-16T11:16:50;96295.59;;;5.55;69.05
77092;BME280;66032;48.252;11.638;2023-03-16T11:19:26;96287.72;;;5.66;67.99
77092;BME280;66032;48.252;11.638;2023-03-16T11:21:56;96300.53;;;5.82;69.54
77092;BME280;66032;48.252;11.638;2023-03-16T11:27:46;96286.97;;;5.53;69.75
77092;BME280;66032;48.252;11.638;2023-03-16T11:30:22;96292.63;;;5.49;69.59
77092;BME280;66032;48.252;11.638;2023-03-16T11:32:52;96297.50;;;5.53;67.53
77092;BME280;66032;48.252;11.638;2023-03-16T11:41:00;96270.25;;;5.54;69.78
77092;BME280;66032;48.252;11.638;2023-03-16T11:54:46;96260.59;;;5.88;68.03
77092;BME280;66032;48.252;11.638;2023-03-16T11:57:48;96252.78;;;5.87;67.57
77092;BME280;66032;48.252;11.638;2023-03-16T12:11:47;96231.88;;;6.07;66.66
77092;BME280;66032;48.252;11.638;2023-03-16T12:14:46;96225.75;;;6.18;67.45
77092;BME280;66032;48.252;11.638;2023-03-16T12:17:19;96218.91;;;6.27;67.79
77092;BME280;66032;48.252;11.638;2023-03-16T12:19:55;96206.31;;;6.30;68.15
77092;BME280;66032;48.252;11.638;2023-03-16T12:22:38;96201.75;;;6.43;67.22
77092;BME280;66032;48.252;11.638;2023-03-16T12:25:13;96200.00;;;6.54;67.59
77092;BME280;66032;48.252;11.638;2023-03-16T12:27:44;96198.75;;;6.69;66.69
77092;BME280;66032;48.252;11.638;2023-03-16T12:31:19;96199.63;;;6.79;65.56
77092;BME280;66032;48.252;11.638;2023-03-16T12:38:52;96190.06;;;6.99;63.29
77092;BME280;66032;48.252;11.638;2023-03-16T12:49:32;96185.38;;;7.02;61.41
77092;BME280;66032;48.252;11.638;2023-03-16T12:52:11;96188.63;;;7.15;63.86
77092;BME280;66032;48.252;11.638;2023-03-16T12:54:53;96173.94;;;7.22;63.71
77092;BME280;66032;48.252;11.638;2023-03-16T12:57:24;96180.38;;;7.30;63.67
77092;BME280;66032;48.252;11.638;2023-03-16T12:59:58;96175.56;;;7.35;63.51
77092;BME280;66032;48.252;11.638;2023-03-16T13:02:35;96180.00;;;7.34;61.70
77092;BME280;66032;48.252;11.638;2023-03-16T13:05:14;96167.78;;;7.33;62.06
77092;BME280;66032;48.252;11.638;2023-03-16T13:07:48;96165.56;;;7.38;60.54
77092;BME280;66032;48.252;11.638;2023-03-16T13:10:17;96163.88;;;7.37;60.24
77092;BME280;66032;48.252;11.638;2023-03-16T13:12:47;96157.66;;;7.38;60.21
77092;BME280;66032;48.252;11.638;2023-03-16T13:23:27;96150.47;;;7.50;59.48
77092;BME280;66032;48.252;11.638;2023-03-16T13:26:15;96153.53;;;7.55;61.01
77092;BME280;66032;48.252;11.638;2023-03-16T13:28:48;96156.19;;;7.55;59.89
77092;BME280;66032;48.252;11.638;2023-03-16T13:31:48;96147.31;;;7.56;59.56
77092;BME280;66032;48.252;11.638;2023-03-16T13:37:19;96144.53;;;7.57;58.95
77092;BME280;66032;48.252;11.638;2023-03-16T13:39:56;96147.75;;;7.61;60.05
77092;BME280;66032;48.252;11.638;2023-03-16T13:42:27;96141.34;;;7.63;60.21
77092;BME280;66032;48.252;11.638;2023-03-16T13:44:56;96137.50;;;7.68;60.45
77092;BME280;66032;48.252;11.638;2023-03-16T13:47:27;96152.78;;;7.74;60.28
77092;BME280;66032;48.252;11.638;2023-03-16T13:49:56;96137.50;;;7.77;59.07
77092;BME280;66032;48.252;11.638;2023-03-16T13:52:33;96134.88;;;7.77;57.87
77092;BME280;66032;48.252;11.638;2023-03-16T13:55:09;96147.66;;;7.82;57.76
77092;BME280;66032;48.252;11.638;2023-03-16T13:57:43;96141.16;;;7.86;57.29
77092;BME280;66032;48.252;11.638;2023-03-16T14:00:20;96134.19;;;7.85;57.39
77092;BME280;66032;48.252;11.638;2023-03-16T14:02:54;96127.25;;;7.84;57.82
77092;BME280;66032;48.252;11.638;2023-03-16T14:05:28;96129.19;;;7.91;57.63
77092;BME280;66032;48.252;11.638;2023-03-16T14:07:56;96123.34;;;7.97;56.56
77092;BME280;66032;48.252;11.638;2023-03-16T14:10:31;96120.19;;;7.94;53.89
77092;BME280;66032;48.252;11.638;2023-03-16T14:13:30;96125.59;;;7.92;54.99
77092;BME280;66032;48.252;11.638;2023-03-16T14:16:12;96116.13;;;7.90;55.93
77092;BME280;66032;48.252;11.638;2023-03-16T14:18:47;96113.34;;;7.91;56.25
77092;BME280;66032;48.252;11.638;2023-03-16T14:21:25;96116.41;;;7.96;56.61
77092;BME280;66032;48.252;11.638;2023-03-16T14:23:57;96113.34;;;7.91;55.43
77092;BME280;66032;48.252;11.638;2023-03-16T14:26:25;96122.94;;;7.92;55.58
77092;BME280;66032;48.252;11.638;2023-03-16T14:29:27;96122.66;;;7.95;55.62
77092;BME280;66032;48.252;11.638;2023-03-16T14:31:53;96132.25;;;7.96;54.61
77092;BME280;66032;48.252;11.638;2023-03-16T14:34:35;96139.31;;;7.96;54.64
77092;BME280;66032;48.252;11.638;2023-03-16T14:37:09;96131.41;;;7.96;53.89
77092;BME280;66032;48.252;11.638;2023-03-16T14:39:37;96120.00;;;7.95;54.00